Stacja Pogody Warszawa Praga Północ 


Stacja Pogody
Warszawa Praga Północ

 Szerokość N 52° 15 '43"    Długość E 21° 01' 22"    Wysokość 89 m n.p.m.


Wschód Słońca 05:46 Górowanie Słońca 12:36 Zachód Słońca 19:25 panna
Data juliańska 2456902.458 Odległość Słońca 150909267 km Średn. kątowa Słońca 0,317°
Wschód Księżyca 13:04 Zachód Księżyca 22:18 Wiek Księżyca 7 dni Moon
Widoczność Księżyca 43,59% Odległość Księżyca 378606 km Średn. kątowa Księżyca 0,316°
Dzień krótszy od najdłuższego o: 03:08 Długość dnia 13:39 Imieniny Idziego, Bronislawa




Warunki pogodowe uaktualnione 01-09-2014, o godzinie 22:54
Temperatura 14.5 °C ↓ Temperatura odczuwalna 14.7 °C
Punkt rosy 12.2 °C Humidex 16.8 °C
Deszcz na godzinę 0.0 mm Wilgotność względna 86% ↑
Prędkość wiatru (średnia) 0 km/h → Prędkość wiatru (podmuch) 3 km/h
Kierunek wiatru SE Skala Beaufort'a 1
Ciśnienie względne  1017 hPa Trend ciśnienia powolny wzrost
Ciśnienie bezwzględne  1005 hPa Podstawa chmur 372.5 m
METAR EPWA 012030Z 05007KT 020V080 9999 FEW016 14/12 Q1017 NOSIG
TAF TAF EPWA 011730Z 0118/0218 06008KT 9999 SCT020





 a

Valid XHTML 1.0 Transitional Valid CSS!